Qtas de Beverly Hills, Puerto Rico
Current Conditions -  °F | °C
As of 10:56 PM on Tuesday 21 Oct 2014 (Local Time) from TJSJ Reporting Station
Scattered Clouds Scattered Clouds  
Wind Chill: 82°   Ceiling: Unl
Heat Index: 89°   Visibility: 10mi
Dew Point: 75°   Wind: 5mph
Humidity: 79%   Direction: 90°E
Pressure: 29.98"   Gusts: NA
Location:  18.3885°N, 66.115°W
Report Text: TJSJ 220256Z 09004KT 10SM FEW039 SCT075 28/24 A2998 RMK AO2 SLP150 T02780239 51014
Loading
Personal Weather Stations






























Interactive Weather Map
Tropical Storm Tracking
New forecast layout! Learn more

10-Day Weather Forecast

Advertisements
Track Severe Weather on mobile